sensor_id;sensor_type;location;lat;lon;timestamp;temperature;humidity
14529;DHT22;7351;51.194;4.098;2023-04-06T00:00:38;16.90;99.90
14529;DHT22;7351;51.194;4.098;2023-04-06T00:03:07;16.90;99.90
14529;DHT22;7351;51.194;4.098;2023-04-06T00:05:36;16.90;99.90
14529;DHT22;7351;51.194;4.098;2023-04-06T00:08:04;16.80;99.90
14529;DHT22;7351;51.194;4.098;2023-04-06T00:10:31;16.80;99.90
14529;DHT22;7351;51.194;4.098;2023-04-06T00:12:59;16.90;99.90
14529;DHT22;7351;51.194;4.098;2023-04-06T00:15:26;16.80;99.90
14529;DHT22;7351;51.194;4.098;2023-04-06T00:17:53;16.80;99.90
14529;DHT22;7351;51.194;4.098;2023-04-06T00:20:21;16.80;99.90
14529;DHT22;7351;51.194;4.098;2023-04-06T00:22:48;16.80;99.90
14529;DHT22;7351;51.194;4.098;2023-04-06T00:25:16;16.80;99.90
14529;DHT22;7351;51.194;4.098;2023-04-06T00:27:43;16.70;99.90
14529;DHT22;7351;51.194;4.098;2023-04-06T00:30:10;16.80;99.90
14529;DHT22;7351;51.194;4.098;2023-04-06T00:32:37;16.80;99.90
14529;DHT22;7351;51.194;4.098;2023-04-06T00:35:05;16.80;99.90
14529;DHT22;7351;51.194;4.098;2023-04-06T00:37:34;16.80;99.90
14529;DHT22;7351;51.194;4.098;2023-04-06T00:40:01;16.80;99.90
14529;DHT22;7351;51.194;4.098;2023-04-06T00:42:28;16.80;99.90
14529;DHT22;7351;51.194;4.098;2023-04-06T00:44:57;16.80;99.90
14529;DHT22;7351;51.194;4.098;2023-04-06T00:47:25;16.80;99.90
14529;DHT22;7351;51.194;4.098;2023-04-06T00:49:52;16.80;99.90
14529;DHT22;7351;51.194;4.098;2023-04-06T00:52:20;16.80;99.90
14529;DHT22;7351;51.194;4.098;2023-04-06T00:54:49;16.80;99.90
14529;DHT22;7351;51.194;4.098;2023-04-06T00:57:17;16.80;99.90
14529;DHT22;7351;51.194;4.098;2023-04-06T00:59:44;16.80;99.90
14529;DHT22;7351;51.194;4.098;2023-04-06T01:02:11;16.80;99.90
14529;DHT22;7351;51.194;4.098;2023-04-06T01:04:38;16.80;99.90
14529;DHT22;7351;51.194;4.098;2023-04-06T01:07:06;16.80;99.90
14529;DHT22;7351;51.194;4.098;2023-04-06T01:09:33;16.80;99.90
14529;DHT22;7351;51.194;4.098;2023-04-06T01:12:01;16.80;99.90
14529;DHT22;7351;51.194;4.098;2023-04-06T01:14:29;16.70;99.90
14529;DHT22;7351;51.194;4.098;2023-04-06T01:16:58;16.80;99.90
14529;DHT22;7351;51.194;4.098;2023-04-06T01:19:25;16.70;99.90
14529;DHT22;7351;51.194;4.098;2023-04-06T01:21:52;16.70;99.90
14529;DHT22;7351;51.194;4.098;2023-04-06T01:24:21;16.70;99.90
14529;DHT22;7351;51.194;4.098;2023-04-06T01:26:48;16.70;99.90
14529;DHT22;7351;51.194;4.098;2023-04-06T01:29:15;16.70;99.90
14529;DHT22;7351;51.194;4.098;2023-04-06T01:31:42;16.80;99.90
14529;DHT22;7351;51.194;4.098;2023-04-06T01:34:09;16.70;99.90
14529;DHT22;7351;51.194;4.098;2023-04-06T01:36:36;16.80;99.90
14529;DHT22;7351;51.194;4.098;2023-04-06T01:39:03;16.70;99.90
14529;DHT22;7351;51.194;4.098;2023-04-06T01:41:32;16.70;99.90
14529;DHT22;7351;51.194;4.098;2023-04-06T01:43:59;16.70;99.90
14529;DHT22;7351;51.194;4.098;2023-04-06T01:46:26;16.70;99.90
14529;DHT22;7351;51.194;4.098;2023-04-06T01:48:53;16.70;99.90
14529;DHT22;7351;51.194;4.098;2023-04-06T01:51:20;16.70;99.90
14529;DHT22;7351;51.194;4.098;2023-04-06T01:53:47;16.70;99.90
14529;DHT22;7351;51.194;4.098;2023-04-06T01:56:14;16.70;99.90
14529;DHT22;7351;51.194;4.098;2023-04-06T01:58:43;16.70;99.90
14529;DHT22;7351;51.194;4.098;2023-04-06T02:01:10;16.70;99.90
14529;DHT22;7351;51.194;4.098;2023-04-06T02:03:37;16.70;99.90
14529;DHT22;7351;51.194;4.098;2023-04-06T02:06:04;16.70;99.90
14529;DHT22;7351;51.194;4.098;2023-04-06T02:08:31;16.70;99.90
14529;DHT22;7351;51.194;4.098;2023-04-06T02:10:58;16.60;99.90
14529;DHT22;7351;51.194;4.098;2023-04-06T02:13:25;16.60;99.90
14529;DHT22;7351;51.194;4.098;2023-04-06T02:15:54;16.60;99.90
14529;DHT22;7351;51.194;4.098;2023-04-06T02:18:21;16.60;99.90
14529;DHT22;7351;51.194;4.098;2023-04-06T02:20:48;16.60;99.90
14529;DHT22;7351;51.194;4.098;2023-04-06T02:23:15;16.60;99.90
14529;DHT22;7351;51.194;4.098;2023-04-06T02:25:42;16.60;99.90
14529;DHT22;7351;51.194;4.098;2023-04-06T02:28:09;16.60;99.90
14529;DHT22;7351;51.194;4.098;2023-04-06T02:30:36;16.50;99.90
14529;DHT22;7351;51.194;4.098;2023-04-06T02:33:04;16.50;99.90
14529;DHT22;7351;51.194;4.098;2023-04-06T02:35:31;16.50;99.90
14529;DHT22;7351;51.194;4.098;2023-04-06T02:37:58;16.50;99.90
14529;DHT22;7351;51.194;4.098;2023-04-06T02:40:25;16.50;99.90
14529;DHT22;7351;51.194;4.098;2023-04-06T02:42:52;16.50;99.90
14529;DHT22;7351;51.194;4.098;2023-04-06T02:45:19;16.50;99.90
14529;DHT22;7351;51.194;4.098;2023-04-06T02:47:47;16.50;99.90
14529;DHT22;7351;51.194;4.098;2023-04-06T02:50:15;16.50;99.90
14529;DHT22;7351;51.194;4.098;2023-04-06T02:52:42;16.50;99.90
14529;DHT22;7351;51.194;4.098;2023-04-06T02:55:09;16.50;99.90
14529;DHT22;7351;51.194;4.098;2023-04-06T02:57:36;16.50;99.90
14529;DHT22;7351;51.194;4.098;2023-04-06T03:00:04;16.50;99.90
14529;DHT22;7351;51.194;4.098;2023-04-06T03:02:32;16.50;99.90
14529;DHT22;7351;51.194;4.098;2023-04-06T03:04:59;16.50;99.90
14529;DHT22;7351;51.194;4.098;2023-04-06T03:07:27;16.50;99.90
14529;DHT22;7351;51.194;4.098;2023-04-06T03:09:54;16.40;99.90
14529;DHT22;7351;51.194;4.098;2023-04-06T03:12:21;16.40;99.90
14529;DHT22;7351;51.194;4.098;2023-04-06T03:14:48;16.40;99.90
14529;DHT22;7351;51.194;4.098;2023-04-06T03:17:15;16.40;99.90
14529;DHT22;7351;51.194;4.098;2023-04-06T03:19:42;16.40;99.90
14529;DHT22;7351;51.194;4.098;2023-04-06T03:22:09;16.40;99.90
14529;DHT22;7351;51.194;4.098;2023-04-06T03:24:38;16.40;99.90
14529;DHT22;7351;51.194;4.098;2023-04-06T03:27:05;16.40;99.90
14529;DHT22;7351;51.194;4.098;2023-04-06T03:29:32;16.40;99.90
14529;DHT22;7351;51.194;4.098;2023-04-06T03:31:59;16.40;99.90
14529;DHT22;7351;51.194;4.098;2023-04-06T03:34:26;16.40;99.90
14529;DHT22;7351;51.194;4.098;2023-04-06T03:36:53;16.40;99.90
14529;DHT22;7351;51.194;4.098;2023-04-06T03:39:20;16.40;99.90
14529;DHT22;7351;51.194;4.098;2023-04-06T03:41:48;16.40;99.90
14529;DHT22;7351;51.194;4.098;2023-04-06T03:44:16;16.30;99.90
14529;DHT22;7351;51.194;4.098;2023-04-06T03:46:43;16.30;99.90
14529;DHT22;7351;51.194;4.098;2023-04-06T03:49:10;16.40;99.90
14529;DHT22;7351;51.194;4.098;2023-04-06T03:51:37;16.30;99.90
14529;DHT22;7351;51.194;4.098;2023-04-06T03:54:04;16.40;99.90
14529;DHT22;7351;51.194;4.098;2023-04-06T03:56:31;16.30;99.90
14529;DHT22;7351;51.194;4.098;2023-04-06T03:59:00;16.30;99.90
14529;DHT22;7351;51.194;4.098;2023-04-06T04:01:27;16.30;99.90
14529;DHT22;7351;51.194;4.098;2023-04-06T04:03:54;16.30;99.90
14529;DHT22;7351;51.194;4.098;2023-04-06T04:06:21;16.40;99.90
14529;DHT22;7351;51.194;4.098;2023-04-06T04:08:48;16.30;99.90
14529;DHT22;7351;51.194;4.098;2023-04-06T04:11:16;16.30;99.90
14529;DHT22;7351;51.194;4.098;2023-04-06T04:13:43;16.30;99.90
14529;DHT22;7351;51.194;4.098;2023-04-06T04:16:11;16.30;99.90
14529;DHT22;7351;51.194;4.098;2023-04-06T04:18:38;16.30;99.90
14529;DHT22;7351;51.194;4.098;2023-04-06T04:21:05;16.30;99.90
14529;DHT22;7351;51.194;4.098;2023-04-06T04:23:32;16.30;99.90
14529;DHT22;7351;51.194;4.098;2023-04-06T04:25:59;16.30;99.90
14529;DHT22;7351;51.194;4.098;2023-04-06T04:28:26;16.40;99.90
14529;DHT22;7351;51.194;4.098;2023-04-06T04:30:53;16.30;99.90
14529;DHT22;7351;51.194;4.098;2023-04-06T04:33:22;16.30;99.90
14529;DHT22;7351;51.194;4.098;2023-04-06T04:35:49;16.30;99.90
14529;DHT22;7351;51.194;4.098;2023-04-06T04:38:16;16.30;99.90
14529;DHT22;7351;51.194;4.098;2023-04-06T04:40:43;16.30;99.90
14529;DHT22;7351;51.194;4.098;2023-04-06T04:43:10;16.40;99.90
14529;DHT22;7351;51.194;4.098;2023-04-06T04:45:37;16.60;99.90
14529;DHT22;7351;51.194;4.098;2023-04-06T04:48:04;16.70;99.90
14529;DHT22;7351;51.194;4.098;2023-04-06T04:50:33;16.80;99.90
14529;DHT22;7351;51.194;4.098;2023-04-06T04:53:00;16.90;99.90
14529;DHT22;7351;51.194;4.098;2023-04-06T04:55:27;17.00;99.90
14529;DHT22;7351;51.194;4.098;2023-04-06T04:57:54;17.10;99.90
14529;DHT22;7351;51.194;4.098;2023-04-06T05:00:22;17.30;99.90
14529;DHT22;7351;51.194;4.098;2023-04-06T05:02:49;17.30;99.90
14529;DHT22;7351;51.194;4.098;2023-04-06T05:05:16;17.50;99.90
14529;DHT22;7351;51.194;4.098;2023-04-06T05:07:44;17.60;99.90
14529;DHT22;7351;51.194;4.098;2023-04-06T05:10:11;17.80;99.90
14529;DHT22;7351;51.194;4.098;2023-04-06T05:12:38;17.80;99.90
14529;DHT22;7351;51.194;4.098;2023-04-06T05:15:07;17.90;99.90
14529;DHT22;7351;51.194;4.098;2023-04-06T05:17:34;18.00;99.90
14529;DHT22;7351;51.194;4.098;2023-04-06T05:20:01;18.10;99.90
14529;DHT22;7351;51.194;4.098;2023-04-06T05:22:28;18.10;99.90
14529;DHT22;7351;51.194;4.098;2023-04-06T05:24:57;18.10;99.90
14529;DHT22;7351;51.194;4.098;2023-04-06T05:27:24;18.10;99.90
14529;DHT22;7351;51.194;4.098;2023-04-06T05:29:51;18.10;99.90
14529;DHT22;7351;51.194;4.098;2023-04-06T05:32:18;18.20;99.90
14529;DHT22;7351;51.194;4.098;2023-04-06T05:34:48;18.10;99.90
14529;DHT22;7351;51.194;4.098;2023-04-06T05:37:15;18.20;99.90
14529;DHT22;7351;51.194;4.098;2023-04-06T05:39:42;18.10;99.90
14529;DHT22;7351;51.194;4.098;2023-04-06T05:42:10;18.10;99.90
14529;DHT22;7351;51.194;4.098;2023-04-06T05:44:37;18.00;99.90
14529;DHT22;7351;51.194;4.098;2023-04-06T05:47:05;18.00;99.90
14529;DHT22;7351;51.194;4.098;2023-04-06T05:49:32;18.00;99.90
14529;DHT22;7351;51.194;4.098;2023-04-06T05:51:59;18.00;99.90
14529;DHT22;7351;51.194;4.098;2023-04-06T05:54:26;17.90;99.90
14529;DHT22;7351;51.194;4.098;2023-04-06T05:56:53;17.90;99.90
14529;DHT22;7351;51.194;4.098;2023-04-06T05:59:21;17.90;99.90
14529;DHT22;7351;51.194;4.098;2023-04-06T06:01:49;17.80;99.90
14529;DHT22;7351;51.194;4.098;2023-04-06T06:04:16;17.80;99.90
14529;DHT22;7351;51.194;4.098;2023-04-06T06:06:43;17.80;99.90
14529;DHT22;7351;51.194;4.098;2023-04-06T06:09:10;17.70;99.90
14529;DHT22;7351;51.194;4.098;2023-04-06T06:11:37;17.60;99.90
14529;DHT22;7351;51.194;4.098;2023-04-06T06:14:04;17.60;99.90
14529;DHT22;7351;51.194;4.098;2023-04-06T06:16:33;17.60;99.90
14529;DHT22;7351;51.194;4.098;2023-04-06T06:19:00;17.50;99.90
14529;DHT22;7351;51.194;4.098;2023-04-06T06:21:27;17.40;99.90
14529;DHT22;7351;51.194;4.098;2023-04-06T06:23:54;17.40;99.90
14529;DHT22;7351;51.194;4.098;2023-04-06T06:26:21;17.40;99.90
14529;DHT22;7351;51.194;4.098;2023-04-06T06:28:48;17.40;99.90
14529;DHT22;7351;51.194;4.098;2023-04-06T06:31:15;17.40;99.90
14529;DHT22;7351;51.194;4.098;2023-04-06T06:33:45;17.40;99.90
14529;DHT22;7351;51.194;4.098;2023-04-06T06:36:15;17.40;99.90
14529;DHT22;7351;51.194;4.098;2023-04-06T06:38:42;17.30;99.90
14529;DHT22;7351;51.194;4.098;2023-04-06T06:41:10;17.20;99.90
14529;DHT22;7351;51.194;4.098;2023-04-06T06:43:37;17.20;99.90
14529;DHT22;7351;51.194;4.098;2023-04-06T06:46:04;17.20;99.90
14529;DHT22;7351;51.194;4.098;2023-04-06T06:48:31;17.20;99.90
14529;DHT22;7351;51.194;4.098;2023-04-06T06:51:00;17.20;99.90
14529;DHT22;7351;51.194;4.098;2023-04-06T06:53:27;17.20;99.90
14529;DHT22;7351;51.194;4.098;2023-04-06T06:55:54;17.20;99.90
14529;DHT22;7351;51.194;4.098;2023-04-06T06:58:24;17.20;99.90
14529;DHT22;7351;51.194;4.098;2023-04-06T07:00:56;17.20;99.90
14529;DHT22;7351;51.194;4.098;2023-04-06T07:03:23;17.10;99.90
14529;DHT22;7351;51.194;4.098;2023-04-06T07:05:50;17.00;99.90
14529;DHT22;7351;51.194;4.098;2023-04-06T07:08:22;17.00;99.90
14529;DHT22;7351;51.194;4.098;2023-04-06T07:10:51;17.10;99.90
14529;DHT22;7351;51.194;4.098;2023-04-06T07:13:18;17.00;99.90
14529;DHT22;7351;51.194;4.098;2023-04-06T07:15:48;17.10;99.90
14529;DHT22;7351;51.194;4.098;2023-04-06T07:18:16;16.90;99.90
14529;DHT22;7351;51.194;4.098;2023-04-06T07:20:43;16.90;99.90
14529;DHT22;7351;51.194;4.098;2023-04-06T07:23:10;16.90;99.90
14529;DHT22;7351;51.194;4.098;2023-04-06T07:25:38;17.00;99.90
14529;DHT22;7351;51.194;4.098;2023-04-06T07:28:05;16.90;99.90
14529;DHT22;7351;51.194;4.098;2023-04-06T07:30:32;16.90;99.90
14529;DHT22;7351;51.194;4.098;2023-04-06T07:32:59;16.90;99.90
14529;DHT22;7351;51.194;4.098;2023-04-06T07:35:27;17.00;99.90
14529;DHT22;7351;51.194;4.098;2023-04-06T07:37:55;16.90;99.90
14529;DHT22;7351;51.194;4.098;2023-04-06T07:40:22;17.00;99.90
14529;DHT22;7351;51.194;4.098;2023-04-06T07:42:53;17.00;99.90
14529;DHT22;7351;51.194;4.098;2023-04-06T07:45:20;16.90;99.90
14529;DHT22;7351;51.194;4.098;2023-04-06T07:47:47;16.90;99.90
14529;DHT22;7351;51.194;4.098;2023-04-06T07:50:14;16.80;99.90
14529;DHT22;7351;51.194;4.098;2023-04-06T07:52:41;16.80;99.90
14529;DHT22;7351;51.194;4.098;2023-04-06T07:55:09;16.80;99.90
14529;DHT22;7351;51.194;4.098;2023-04-06T07:57:36;16.80;99.90
14529;DHT22;7351;51.194;4.098;2023-04-06T08:00:06;16.90;99.90
14529;DHT22;7351;51.194;4.098;2023-04-06T08:02:34;16.90;99.90
14529;DHT22;7351;51.194;4.098;2023-04-06T08:05:01;16.90;99.90
14529;DHT22;7351;51.194;4.098;2023-04-06T08:07:30;16.90;99.90
14529;DHT22;7351;51.194;4.098;2023-04-06T08:09:57;16.90;99.90
14529;DHT22;7351;51.194;4.098;2023-04-06T08:12:24;16.90;99.90
14529;DHT22;7351;51.194;4.098;2023-04-06T08:14:51;16.80;99.90
14529;DHT22;7351;51.194;4.098;2023-04-06T08:17:20;16.80;99.90
14529;DHT22;7351;51.194;4.098;2023-04-06T08:19:47;16.80;99.90
14529;DHT22;7351;51.194;4.098;2023-04-06T08:22:14;16.80;99.90
14529;DHT22;7351;51.194;4.098;2023-04-06T08:24:41;16.70;99.90
14529;DHT22;7351;51.194;4.098;2023-04-06T08:27:08;16.70;99.90
14529;DHT22;7351;51.194;4.098;2023-04-06T08:29:35;16.80;99.90
14529;DHT22;7351;51.194;4.098;2023-04-06T08:32:02;16.80;99.90
14529;DHT22;7351;51.194;4.098;2023-04-06T08:34:32;16.80;99.90
14529;DHT22;7351;51.194;4.098;2023-04-06T08:36:59;16.90;99.90
14529;DHT22;7351;51.194;4.098;2023-04-06T08:39:27;16.90;99.90
14529;DHT22;7351;51.194;4.098;2023-04-06T08:41:56;16.90;99.90
14529;DHT22;7351;51.194;4.098;2023-04-06T08:44:25;16.90;99.90
14529;DHT22;7351;51.194;4.098;2023-04-06T08:46:52;16.90;99.90
14529;DHT22;7351;51.194;4.098;2023-04-06T08:49:20;16.80;99.90
14529;DHT22;7351;51.194;4.098;2023-04-06T08:51:49;16.80;99.90
14529;DHT22;7351;51.194;4.098;2023-04-06T08:54:16;16.70;99.90
14529;DHT22;7351;51.194;4.098;2023-04-06T08:56:43;16.70;99.90
14529;DHT22;7351;51.194;4.098;2023-04-06T08:59:11;16.70;99.90
14529;DHT22;7351;51.194;4.098;2023-04-06T09:01:40;16.80;99.90
14529;DHT22;7351;51.194;4.098;2023-04-06T09:04:08;16.80;99.90
14529;DHT22;7351;51.194;4.098;2023-04-06T09:06:36;16.80;99.90
14529;DHT22;7351;51.194;4.098;2023-04-06T09:09:05;16.90;99.90
14529;DHT22;7351;51.194;4.098;2023-04-06T09:11:46;16.80;99.90
14529;DHT22;7351;51.194;4.098;2023-04-06T09:14:13;16.80;99.90
14529;DHT22;7351;51.194;4.098;2023-04-06T09:16:42;16.80;99.90
14529;DHT22;7351;51.194;4.098;2023-04-06T09:19:09;16.80;99.90
14529;DHT22;7351;51.194;4.098;2023-04-06T09:21:37;16.70;99.90
14529;DHT22;7351;51.194;4.098;2023-04-06T09:24:07;16.70;99.90
14529;DHT22;7351;51.194;4.098;2023-04-06T09:26:44;16.70;99.90
14529;DHT22;7351;51.194;4.098;2023-04-06T09:29:22;16.70;99.90
14529;DHT22;7351;51.194;4.098;2023-04-06T09:31:50;16.70;99.90
14529;DHT22;7351;51.194;4.098;2023-04-06T09:34:23;16.70;99.90
14529;DHT22;7351;51.194;4.098;2023-04-06T09:36:50;16.70;99.90
14529;DHT22;7351;51.194;4.098;2023-04-06T09:39:22;16.80;99.90
14529;DHT22;7351;51.194;4.098;2023-04-06T09:41:51;16.80;99.90
14529;DHT22;7351;51.194;4.098;2023-04-06T09:44:18;16.80;99.90
14529;DHT22;7351;51.194;4.098;2023-04-06T09:46:46;16.80;99.90
14529;DHT22;7351;51.194;4.098;2023-04-06T09:49:14;16.80;99.90
14529;DHT22;7351;51.194;4.098;2023-04-06T09:51:45;16.70;99.90
14529;DHT22;7351;51.194;4.098;2023-04-06T09:54:18;16.80;99.90
14529;DHT22;7351;51.194;4.098;2023-04-06T09:56:50;16.80;99.90
14529;DHT22;7351;51.194;4.098;2023-04-06T09:59:21;16.80;99.90
14529;DHT22;7351;51.194;4.098;2023-04-06T10:01:52;16.80;99.90
14529;DHT22;7351;51.194;4.098;2023-04-06T10:04:27;16.80;99.90
14529;DHT22;7351;51.194;4.098;2023-04-06T10:06:57;16.80;99.90
14529;DHT22;7351;51.194;4.098;2023-04-06T10:09:27;16.80;99.90
14529;DHT22;7351;51.194;4.098;2023-04-06T10:11:58;16.80;99.90
14529;DHT22;7351;51.194;4.098;2023-04-06T10:14:25;16.80;99.90
14529;DHT22;7351;51.194;4.098;2023-04-06T10:16:52;16.80;99.90
14529;DHT22;7351;51.194;4.098;2023-04-06T10:19:24;16.80;99.90
14529;DHT22;7351;51.194;4.098;2023-04-06T10:21:55;16.80;99.90
14529;DHT22;7351;51.194;4.098;2023-04-06T10:24:24;16.80;99.90
14529;DHT22;7351;51.194;4.098;2023-04-06T10:27:01;16.70;99.90
14529;DHT22;7351;51.194;4.098;2023-04-06T10:29:28;16.80;99.90
14529;DHT22;7351;51.194;4.098;2023-04-06T10:32:07;16.70;99.90
14529;DHT22;7351;51.194;4.098;2023-04-06T10:34:34;16.80;99.90
14529;DHT22;7351;51.194;4.098;2023-04-06T10:37:11;16.80;99.90
14529;DHT22;7351;51.194;4.098;2023-04-06T10:39:46;16.80;99.90
14529;DHT22;7351;51.194;4.098;2023-04-06T10:42:15;16.80;99.90
14529;DHT22;7351;51.194;4.098;2023-04-06T10:44:43;16.80;99.90
14529;DHT22;7351;51.194;4.098;2023-04-06T10:47:16;16.70;99.90
14529;DHT22;7351;51.194;4.098;2023-04-06T10:49:44;16.70;99.90
14529;DHT22;7351;51.194;4.098;2023-04-06T10:52:11;16.70;99.90
14529;DHT22;7351;51.194;4.098;2023-04-06T10:54:41;16.70;99.90
14529;DHT22;7351;51.194;4.098;2023-04-06T10:57:09;16.70;99.90
14529;DHT22;7351;51.194;4.098;2023-04-06T10:59:42;16.70;99.90
14529;DHT22;7351;51.194;4.098;2023-04-06T11:02:19;16.70;99.90
14529;DHT22;7351;51.194;4.098;2023-04-06T11:04:54;16.70;99.90
14529;DHT22;7351;51.194;4.098;2023-04-06T11:07:25;16.70;99.90
14529;DHT22;7351;51.194;4.098;2023-04-06T11:09:52;16.70;99.90
14529;DHT22;7351;51.194;4.098;2023-04-06T11:12:23;16.70;99.90
14529;DHT22;7351;51.194;4.098;2023-04-06T11:14:56;16.70;99.90
14529;DHT22;7351;51.194;4.098;2023-04-06T11:17:28;16.70;99.90
14529;DHT22;7351;51.194;4.098;2023-04-06T11:19:55;16.70;99.90
14529;DHT22;7351;51.194;4.098;2023-04-06T11:22:22;16.70;99.90
14529;DHT22;7351;51.194;4.098;2023-04-06T11:24:49;16.60;99.90
14529;DHT22;7351;51.194;4.098;2023-04-06T11:27:17;16.60;99.90
14529;DHT22;7351;51.194;4.098;2023-04-06T11:29:44;16.60;99.90
14529;DHT22;7351;51.194;4.098;2023-04-06T11:32:20;16.60;99.90
14529;DHT22;7351;51.194;4.098;2023-04-06T11:34:48;16.60;99.90
14529;DHT22;7351;51.194;4.098;2023-04-06T11:37:15;16.60;99.90
14529;DHT22;7351;51.194;4.098;2023-04-06T11:39:46;16.50;99.90
14529;DHT22;7351;51.194;4.098;2023-04-06T11:42:21;16.60;99.90
14529;DHT22;7351;51.194;4.098;2023-04-06T11:44:50;16.50;99.90
14529;DHT22;7351;51.194;4.098;2023-04-06T11:47:20;16.60;99.90
14529;DHT22;7351;51.194;4.098;2023-04-06T11:49:53;16.60;99.90
14529;DHT22;7351;51.194;4.098;2023-04-06T11:52:24;16.60;99.90
14529;DHT22;7351;51.194;4.098;2023-04-06T11:54:52;16.60;99.90
14529;DHT22;7351;51.194;4.098;2023-04-06T11:57:21;16.60;99.90
14529;DHT22;7351;51.194;4.098;2023-04-06T11:59:48;16.60;99.90
14529;DHT22;7351;51.194;4.098;2023-04-06T12:02:15;16.60;99.90
14529;DHT22;7351;51.194;4.098;2023-04-06T12:04:45;16.60;99.90
14529;DHT22;7351;51.194;4.098;2023-04-06T12:07:12;16.60;99.90
14529;DHT22;7351;51.194;4.098;2023-04-06T12:09:39;16.60;99.90
14529;DHT22;7351;51.194;4.098;2023-04-06T12:12:06;16.60;99.90
14529;DHT22;7351;51.194;4.098;2023-04-06T12:14:33;16.60;99.90
14529;DHT22;7351;51.194;4.098;2023-04-06T12:17:00;16.60;99.90
14529;DHT22;7351;51.194;4.098;2023-04-06T12:19:27;16.60;99.90
14529;DHT22;7351;51.194;4.098;2023-04-06T12:21:57;16.60;99.90
14529;DHT22;7351;51.194;4.098;2023-04-06T12:24:24;16.60;99.90
14529;DHT22;7351;51.194;4.098;2023-04-06T12:26:51;16.60;99.90
14529;DHT22;7351;51.194;4.098;2023-04-06T12:29:18;16.60;99.90
14529;DHT22;7351;51.194;4.098;2023-04-06T12:31:45;16.60;99.90
14529;DHT22;7351;51.194;4.098;2023-04-06T12:34:12;16.60;99.90
14529;DHT22;7351;51.194;4.098;2023-04-06T12:36:39;16.60;99.90
14529;DHT22;7351;51.194;4.098;2023-04-06T12:39:07;16.60;99.90
14529;DHT22;7351;51.194;4.098;2023-04-06T12:41:34;16.60;99.90
14529;DHT22;7351;51.194;4.098;2023-04-06T12:44:01;16.60;99.90
14529;DHT22;7351;51.194;4.098;2023-04-06T12:46:29;16.60;99.90
14529;DHT22;7351;51.194;4.098;2023-04-06T12:48:56;16.60;99.90
14529;DHT22;7351;51.194;4.098;2023-04-06T12:51:26;16.60;99.90
14529;DHT22;7351;51.194;4.098;2023-04-06T12:53:54;16.60;99.90
14529;DHT22;7351;51.194;4.098;2023-04-06T12:56:22;16.50;99.90
14529;DHT22;7351;51.194;4.098;2023-04-06T12:58:51;16.50;99.90
14529;DHT22;7351;51.194;4.098;2023-04-06T13:01:18;16.50;99.90
14529;DHT22;7351;51.194;4.098;2023-04-06T13:03:45;16.50;99.90
14529;DHT22;7351;51.194;4.098;2023-04-06T13:06:12;16.50;99.90
14529;DHT22;7351;51.194;4.098;2023-04-06T13:08:41;16.50;99.90
14529;DHT22;7351;51.194;4.098;2023-04-06T13:11:08;16.40;99.90
14529;DHT22;7351;51.194;4.098;2023-04-06T13:13:36;16.50;99.90
14529;DHT22;7351;51.194;4.098;2023-04-06T13:16:06;16.40;99.90
14529;DHT22;7351;51.194;4.098;2023-04-06T13:18:33;16.40;99.90
14529;DHT22;7351;51.194;4.098;2023-04-06T13:21:01;16.40;99.90
14529;DHT22;7351;51.194;4.098;2023-04-06T13:23:28;16.40;99.90
14529;DHT22;7351;51.194;4.098;2023-04-06T13:25:59;16.40;99.90
14529;DHT22;7351;51.194;4.098;2023-04-06T13:28:27;16.40;99.90
14529;DHT22;7351;51.194;4.098;2023-04-06T13:30:57;16.40;99.90
14529;DHT22;7351;51.194;4.098;2023-04-06T13:33:25;16.40;99.90
14529;DHT22;7351;51.194;4.098;2023-04-06T13:35:52;16.40;99.90
14529;DHT22;7351;51.194;4.098;2023-04-06T13:38:19;16.30;99.90
14529;DHT22;7351;51.194;4.098;2023-04-06T13:40:46;16.30;99.90
14529;DHT22;7351;51.194;4.098;2023-04-06T13:43:13;16.40;99.90
14529;DHT22;7351;51.194;4.098;2023-04-06T13:45:40;16.40;99.90
14529;DHT22;7351;51.194;4.098;2023-04-06T13:48:09;16.40;99.90
14529;DHT22;7351;51.194;4.098;2023-04-06T13:50:36;16.40;99.90
14529;DHT22;7351;51.194;4.098;2023-04-06T13:53:03;16.40;99.90
14529;DHT22;7351;51.194;4.098;2023-04-06T13:55:30;16.40;99.90
14529;DHT22;7351;51.194;4.098;2023-04-06T13:57:57;16.40;99.90
14529;DHT22;7351;51.194;4.098;2023-04-06T14:00:24;16.40;99.90
14529;DHT22;7351;51.194;4.098;2023-04-06T14:02:53;16.30;99.90
14529;DHT22;7351;51.194;4.098;2023-04-06T14:05:21;16.30;99.90
14529;DHT22;7351;51.194;4.098;2023-04-06T14:07:49;16.40;99.90
14529;DHT22;7351;51.194;4.098;2023-04-06T14:10:16;16.40;99.90
14529;DHT22;7351;51.194;4.098;2023-04-06T14:12:43;16.40;99.90
14529;DHT22;7351;51.194;4.098;2023-04-06T14:15:11;16.40;99.90
14529;DHT22;7351;51.194;4.098;2023-04-06T14:17:38;16.40;99.90
14529;DHT22;7351;51.194;4.098;2023-04-06T14:20:06;16.40;99.90
14529;DHT22;7351;51.194;4.098;2023-04-06T14:22:35;16.40;99.90
14529;DHT22;7351;51.194;4.098;2023-04-06T14:25:02;16.40;99.90
14529;DHT22;7351;51.194;4.098;2023-04-06T14:27:29;16.40;99.90
14529;DHT22;7351;51.194;4.098;2023-04-06T14:29:56;16.40;99.90
14529;DHT22;7351;51.194;4.098;2023-04-06T14:32:23;16.40;99.90
14529;DHT22;7351;51.194;4.098;2023-04-06T14:34:50;16.30;99.90
14529;DHT22;7351;51.194;4.098;2023-04-06T14:37:17;16.30;99.90
14529;DHT22;7351;51.194;4.098;2023-04-06T14:39:45;16.30;99.90
14529;DHT22;7351;51.194;4.098;2023-04-06T14:42:12;16.30;99.90
14529;DHT22;7351;51.194;4.098;2023-04-06T14:44:39;16.30;99.90
14529;DHT22;7351;51.194;4.098;2023-04-06T14:47:08;16.30;99.90
14529;DHT22;7351;51.194;4.098;2023-04-06T14:49:35;16.30;99.90
14529;DHT22;7351;51.194;4.098;2023-04-06T14:52:02;16.30;99.90
14529;DHT22;7351;51.194;4.098;2023-04-06T14:54:29;16.40;99.90
14529;DHT22;7351;51.194;4.098;2023-04-06T14:56:58;16.50;99.90
14529;DHT22;7351;51.194;4.098;2023-04-06T14:59:26;16.50;99.90
14529;DHT22;7351;51.194;4.098;2023-04-06T15:01:53;16.60;99.90
14529;DHT22;7351;51.194;4.098;2023-04-06T15:04:23;16.70;99.90
14529;DHT22;7351;51.194;4.098;2023-04-06T15:06:50;16.80;99.90
14529;DHT22;7351;51.194;4.098;2023-04-06T15:09:17;16.90;99.90
14529;DHT22;7351;51.194;4.098;2023-04-06T15:11:44;16.90;99.90
14529;DHT22;7351;51.194;4.098;2023-04-06T15:14:12;17.00;99.90
14529;DHT22;7351;51.194;4.098;2023-04-06T15:16:39;17.10;99.90
14529;DHT22;7351;51.194;4.098;2023-04-06T15:19:06;17.10;99.90
14529;DHT22;7351;51.194;4.098;2023-04-06T15:21:34;17.20;99.90
14529;DHT22;7351;51.194;4.098;2023-04-06T15:24:01;17.30;99.90
14529;DHT22;7351;51.194;4.098;2023-04-06T15:26:29;17.30;99.90
14529;DHT22;7351;51.194;4.098;2023-04-06T15:28:56;17.40;99.90
14529;DHT22;7351;51.194;4.098;2023-04-06T15:31:24;17.40;99.90
14529;DHT22;7351;51.194;4.098;2023-04-06T15:33:51;17.50;99.90
14529;DHT22;7351;51.194;4.098;2023-04-06T15:36:23;17.50;99.90
14529;DHT22;7351;51.194;4.098;2023-04-06T15:38:52;17.60;99.90
14529;DHT22;7351;51.194;4.098;2023-04-06T15:41:19;17.60;99.90
14529;DHT22;7351;51.194;4.098;2023-04-06T15:43:47;17.60;99.90
14529;DHT22;7351;51.194;4.098;2023-04-06T15:46:14;17.60;99.90
14529;DHT22;7351;51.194;4.098;2023-04-06T15:48:42;17.60;99.90